Fort Walton Beach, Florida
Current Conditions -  °F | °C
As of 8:56 PM on Wednesday 26 Nov 2014 (Local Time) from KQBL Reporting Station
Broken Clouds Broken Clouds  
Wind Chill: 55°   Ceiling: 24000
Heat Index: 55°   Visibility: 10mi
Dew Point: 46°   Wind: 3mph
Humidity: 72%   Direction: 280°W
Pressure: 30.2"   Gusts: NA
Location:  30.4°N, 86.61°W
Report Text: KQBL 270256Z AUTO 28003KT 10SM BKN240 13/08 A3020 RMK AO2 SLP232 T01270077 50003
Loading
Personal Weather Stations






























Interactive Weather Map New forecast layout! Learn more

10-Day Weather Forecast

Advertisements
Track Severe Weather on mobile